createdAt,value
2022-09-26T00:00:12.520Z,96.51
2022-09-26T00:01:12.570Z,96.30
2022-09-26T00:02:12.562Z,96.51
2022-09-26T00:03:12.514Z,96.05
2022-09-26T00:04:13.317Z,96.05
2022-09-26T00:05:12.434Z,96.46
2022-09-26T00:06:15.308Z,95.64
2022-09-26T00:07:12.424Z,95.89
2022-09-26T00:08:12.413Z,95.54
2022-09-26T00:09:13.008Z,95.44
2022-09-26T00:10:12.390Z,95.44
2022-09-26T00:11:12.357Z,95.44
2022-09-26T00:12:12.364Z,95.54
2022-09-26T00:13:12.332Z,95.54
2022-09-26T00:14:12.354Z,95.54
2022-09-26T00:15:12.360Z,95.34
2022-09-26T00:16:12.389Z,95.44
2022-09-26T00:17:12.436Z,95.54
2022-09-26T00:18:12.289Z,95.85
2022-09-26T00:19:12.361Z,95.75
2022-09-26T00:20:12.299Z,95.85
2022-09-26T00:21:12.265Z,95.89
2022-09-26T00:22:12.320Z,95.64
2022-09-26T00:23:14.815Z,95.75
2022-09-26T00:24:12.221Z,95.79
2022-09-26T00:25:12.202Z,95.44
2022-09-26T00:26:12.227Z,95.69
2022-09-26T00:27:12.182Z,95.75
2022-09-26T00:28:12.212Z,95.75
2022-09-26T00:29:12.301Z,95.44
2022-09-26T00:30:12.152Z,95.75
2022-09-26T00:31:12.239Z,96.10
2022-09-26T00:32:12.331Z,96.41
2022-09-26T00:33:12.799Z,96.30
2022-09-26T00:34:12.359Z,96.51
2022-09-26T00:35:12.112Z,96.30
2022-09-26T00:36:12.089Z,96.20
2022-09-26T00:37:12.085Z,96.30
2022-09-26T00:38:12.093Z,95.85
2022-09-26T00:39:13.035Z,96.20
2022-09-26T00:40:12.154Z,96.10
2022-09-26T00:41:12.055Z,96.51
2022-09-26T00:42:12.027Z,96.10
2022-09-26T00:43:12.060Z,96.20
2022-09-26T00:44:12.030Z,96.41
2022-09-26T00:45:11.997Z,96.10
2022-09-26T00:46:12.077Z,96.10
2022-09-26T00:47:11.960Z,96.30
2022-09-26T00:48:11.956Z,96.41
2022-09-26T00:49:12.090Z,96.00
2022-09-26T00:50:14.835Z,96.51
2022-09-26T00:51:11.926Z,96.10
2022-09-26T00:52:18.816Z,96.41
2022-09-26T00:53:11.898Z,96.92
2022-09-26T00:54:11.916Z,96.41
2022-09-26T00:55:11.927Z,95.69
2022-09-26T00:56:13.865Z,96.71
2022-09-26T00:57:11.860Z,96.61
2022-09-26T00:58:11.868Z,95.89
2022-09-26T00:59:11.891Z,96.41
2022-09-26T01:00:11.872Z,96.51
2022-09-26T01:01:12.021Z,95.94
2022-09-26T01:02:11.966Z,96.34
2022-09-26T01:03:14.331Z,96.51
2022-09-26T01:04:11.810Z,96.55
2022-09-26T01:05:11.776Z,95.89
2022-09-26T01:06:11.778Z,96.51
2022-09-26T01:07:11.774Z,96.30
2022-09-26T01:08:12.333Z,95.89
2022-09-26T01:09:11.919Z,96.20
2022-09-26T01:10:11.730Z,96.51
2022-09-26T01:11:16.679Z,96.51
2022-09-26T01:12:12.700Z,96.61
2022-09-26T01:13:11.749Z,97.06
2022-09-26T01:14:11.680Z,97.33
2022-09-26T01:15:11.692Z,96.25
2022-09-26T01:16:11.688Z,96.14
2022-09-26T01:17:11.676Z,97.27
2022-09-26T01:18:11.659Z,96.75
2022-09-26T01:19:11.632Z,96.66
2022-09-26T01:20:11.616Z,97.06
2022-09-26T01:21:11.602Z,96.96
2022-09-26T01:22:11.600Z,97.37
2022-09-26T01:23:12.616Z,96.66
2022-09-26T01:24:11.599Z,96.86
2022-09-26T01:25:11.560Z,96.14
2022-09-26T01:26:11.548Z,96.41
2022-09-26T01:27:12.323Z,96.41
2022-09-26T01:28:11.540Z,96.30
2022-09-26T01:29:11.560Z,96.25
2022-09-26T01:30:11.539Z,95.94
2022-09-26T01:31:12.394Z,96.20
2022-09-26T01:32:12.308Z,96.41
2022-09-26T01:33:11.493Z,96.25
2022-09-26T01:34:11.459Z,96.34
2022-09-26T01:35:11.828Z,96.66
2022-09-26T01:36:11.469Z,96.45
2022-09-26T01:37:11.425Z,96.55
2022-09-26T01:38:11.413Z,97.33
2022-09-26T01:39:11.396Z,97.02
2022-09-26T01:40:11.443Z,96.30
2022-09-26T01:41:11.413Z,96.41
2022-09-26T01:42:11.380Z,96.81
2022-09-26T01:43:11.383Z,96.41
2022-09-26T01:44:12.341Z,96.34
2022-09-26T01:45:11.332Z,96.45
2022-09-26T01:46:11.435Z,96.55
2022-09-26T01:47:11.349Z,96.55
2022-09-26T01:48:11.312Z,96.34
2022-09-26T01:49:11.843Z,96.66
2022-09-26T01:50:11.287Z,96.41
2022-09-26T01:51:13.807Z,96.30
2022-09-26T01:52:11.300Z,96.51
2022-09-26T01:53:11.814Z,96.66
2022-09-26T01:54:11.229Z,95.89
2022-09-26T01:55:11.252Z,95.89
2022-09-26T01:56:11.221Z,96.30
2022-09-26T01:57:11.235Z,96.00
2022-09-26T01:58:11.196Z,96.14
2022-09-26T01:59:11.974Z,96.34
2022-09-26T02:00:11.334Z,96.45
2022-09-26T02:01:11.193Z,96.55
2022-09-26T02:02:13.964Z,96.25
2022-09-26T02:03:11.813Z,96.14
2022-09-26T02:04:11.155Z,96.45
2022-09-26T02:05:11.187Z,96.04
2022-09-26T02:06:11.105Z,96.25
2022-09-26T02:07:11.122Z,95.94
2022-09-26T02:08:11.118Z,96.51
2022-09-26T02:09:11.116Z,96.41
2022-09-26T02:10:11.070Z,96.51
2022-09-26T02:11:11.048Z,96.04
2022-09-26T02:12:13.805Z,96.51
2022-09-26T02:13:11.062Z,96.14
2022-09-26T02:14:11.028Z,96.41
2022-09-26T02:15:11.121Z,96.10
2022-09-26T02:16:11.098Z,95.59
2022-09-26T02:17:10.982Z,95.89
2022-09-26T02:18:10.983Z,96.10
2022-09-26T02:19:11.901Z,96.10
2022-09-26T02:20:11.815Z,95.69
2022-09-26T02:21:10.968Z,96.56
2022-09-26T02:22:13.808Z,95.89
2022-09-26T02:23:10.916Z,96.20
2022-09-26T02:24:10.904Z,95.69
2022-09-26T02:25:10.900Z,95.69
2022-09-26T02:26:10.930Z,95.89
2022-09-26T02:27:10.887Z,95.89
2022-09-26T02:28:10.873Z,95.59
2022-09-26T02:29:10.859Z,96.51
2022-09-26T02:30:10.882Z,96.00
2022-09-26T02:31:10.849Z,96.20
2022-09-26T02:32:10.942Z,97.02
2022-09-26T02:33:10.828Z,97.33
2022-09-26T02:34:10.850Z,96.71
2022-09-26T02:35:10.830Z,97.83
2022-09-26T02:36:13.307Z,96.71
2022-09-26T02:37:10.766Z,97.12
2022-09-26T02:38:10.780Z,97.33
2022-09-26T02:39:10.773Z,96.97
2022-09-26T02:40:10.775Z,97.12
2022-09-26T02:41:10.732Z,97.22
2022-09-26T02:42:10.727Z,97.02
2022-09-26T02:43:10.709Z,97.12
2022-09-26T02:44:10.715Z,97.53
2022-09-26T02:45:13.320Z,97.12
2022-09-26T02:46:10.777Z,97.08
2022-09-26T02:47:10.857Z,97.83
2022-09-26T02:48:10.660Z,96.87
2022-09-26T02:49:10.674Z,97.42
2022-09-26T02:50:10.624Z,97.12
2022-09-26T02:51:10.887Z,97.33
2022-09-26T02:52:17.312Z,97.33
2022-09-26T02:53:10.602Z,97.33
2022-09-26T02:54:10.600Z,97.38
2022-09-26T02:55:10.844Z,97.22
2022-09-26T02:56:10.570Z,97.17
2022-09-26T02:57:10.567Z,97.33
2022-09-26T02:58:11.319Z,97.33
2022-09-26T02:59:10.527Z,96.97
2022-09-26T03:00:10.526Z,97.49
2022-09-26T03:01:11.019Z,97.42
2022-09-26T03:02:10.499Z,96.97
2022-09-26T03:03:10.602Z,97.53
2022-09-26T03:04:11.320Z,96.61
2022-09-26T03:05:11.486Z,97.33
2022-09-26T03:06:10.512Z,96.05
2022-09-26T03:07:11.318Z,97.02
2022-09-26T03:08:10.437Z,96.92
2022-09-26T03:09:10.439Z,96.41
2022-09-26T03:10:10.429Z,96.81
2022-09-26T03:11:10.436Z,96.87
2022-09-26T03:12:13.307Z,96.92
2022-09-26T03:13:10.847Z,97.53
2022-09-26T03:14:10.390Z,97.53
2022-09-26T03:15:13.322Z,97.33
2022-09-26T03:16:11.330Z,97.02
2022-09-26T03:17:10.360Z,96.61
2022-09-26T03:18:10.320Z,97.02
2022-09-26T03:19:10.364Z,96.87
2022-09-26T03:20:10.312Z,96.92
2022-09-26T03:21:12.848Z,97.33
2022-09-26T03:22:10.279Z,96.81
2022-09-26T03:23:10.278Z,96.81
2022-09-26T03:24:10.300Z,96.77
2022-09-26T03:25:12.851Z,96.10
2022-09-26T03:26:12.815Z,96.20
2022-09-26T03:27:10.817Z,96.77
2022-09-26T03:28:10.229Z,97.33
2022-09-26T03:29:10.241Z,97.33
2022-09-26T03:30:10.193Z,97.22
2022-09-26T03:31:10.210Z,96.81
2022-09-26T03:32:10.325Z,96.92
2022-09-26T03:33:10.214Z,97.33
2022-09-26T03:34:10.813Z,97.33
2022-09-26T03:35:10.195Z,97.28
2022-09-26T03:36:10.160Z,97.33
2022-09-26T03:37:10.117Z,97.02
2022-09-26T03:38:13.689Z,97.02
2022-09-26T03:39:10.818Z,97.33
2022-09-26T03:40:10.233Z,97.22
2022-09-26T03:41:10.077Z,97.42
2022-09-26T03:42:10.112Z,97.12
2022-09-26T03:43:12.852Z,97.17
2022-09-26T03:44:10.067Z,97.38
2022-09-26T03:45:10.038Z,97.33
2022-09-26T03:46:10.866Z,96.77
2022-09-26T03:47:10.344Z,97.22
2022-09-26T03:48:12.819Z,97.28
2022-09-26T03:49:09.988Z,97.28
2022-09-26T03:50:09.974Z,96.92
2022-09-26T03:51:16.836Z,97.02
2022-09-26T03:52:16.833Z,97.17
2022-09-26T03:53:09.980Z,96.97
2022-09-26T03:54:09.948Z,97.58
2022-09-26T03:55:09.924Z,96.92
2022-09-26T03:56:12.853Z,96.97
2022-09-26T03:57:10.830Z,96.87
2022-09-26T03:58:10.349Z,96.92
2022-09-26T03:59:09.900Z,97.49
2022-09-26T04:00:10.814Z,97.49
2022-09-26T04:01:09.937Z,97.74
2022-09-26T04:02:09.979Z,97.53
2022-09-26T04:03:09.898Z,97.63
2022-09-26T04:04:10.821Z,97.63
2022-09-26T04:05:09.817Z,97.74
2022-09-26T04:06:10.317Z,97.94
2022-09-26T04:07:10.338Z,97.83
2022-09-26T04:08:16.339Z,97.83
2022-09-26T04:09:14.463Z,98.14
2022-09-26T04:10:10.770Z,97.94
2022-09-26T04:11:10.351Z,97.94
2022-09-26T04:12:09.736Z,97.94
2022-09-26T04:13:09.728Z,97.74
2022-09-26T04:14:09.755Z,97.83
2022-09-26T04:15:09.709Z,97.22
2022-09-26T04:16:09.751Z,97.74
2022-09-26T04:17:09.776Z,97.63
2022-09-26T04:18:09.680Z,97.53
2022-09-26T04:19:09.748Z,98.10
2022-09-26T04:20:10.326Z,97.63
2022-09-26T04:21:10.200Z,97.74
2022-09-26T04:22:09.634Z,97.63
2022-09-26T04:23:12.328Z,97.63
2022-09-26T04:24:10.327Z,97.53
2022-09-26T04:25:09.618Z,97.94
2022-09-26T04:26:09.595Z,98.04
2022-09-26T04:27:09.599Z,98.14
2022-09-26T04:28:09.589Z,97.79
2022-09-26T04:29:09.655Z,97.79
2022-09-26T04:30:09.552Z,97.79
2022-09-26T04:31:09.545Z,97.69
2022-09-26T04:32:09.550Z,97.58
2022-09-26T04:33:09.513Z,97.58
2022-09-26T04:34:16.321Z,97.89
2022-09-26T04:35:09.483Z,97.89
2022-09-26T04:36:09.474Z,97.53
2022-09-26T04:37:09.519Z,97.69
2022-09-26T04:38:16.348Z,97.38
2022-09-26T04:39:12.456Z,97.38
2022-09-26T04:40:09.432Z,97.69
2022-09-26T04:41:12.318Z,97.63
2022-09-26T04:42:09.432Z,97.49
2022-09-26T04:43:09.395Z,97.58
2022-09-26T04:44:09.423Z,97.49
2022-09-26T04:45:09.381Z,97.38
2022-09-26T04:46:09.430Z,97.58
2022-09-26T04:47:09.367Z,97.49
2022-09-26T04:48:09.346Z,97.69
2022-09-26T04:49:09.444Z,97.58
2022-09-26T04:50:09.343Z,98.04
2022-09-26T04:51:09.332Z,97.58
2022-09-26T04:52:09.300Z,97.49
2022-09-26T04:53:09.326Z,97.69
2022-09-26T04:54:09.314Z,97.89
2022-09-26T04:55:09.295Z,97.38
2022-09-26T04:56:09.297Z,97.58
2022-09-26T04:57:09.241Z,97.79
2022-09-26T04:58:09.274Z,97.69
2022-09-26T04:59:09.883Z,97.49
2022-09-26T05:00:09.214Z,97.69
2022-09-26T05:01:09.257Z,97.49
2022-09-26T05:02:09.245Z,97.79
2022-09-26T05:03:09.183Z,97.89
2022-09-26T05:04:09.350Z,97.69
2022-09-26T05:05:09.166Z,97.99
2022-09-26T05:06:09.152Z,97.79
2022-09-26T05:07:09.148Z,97.58
2022-09-26T05:08:09.127Z,97.79
2022-09-26T05:09:09.239Z,97.99
2022-09-26T05:10:09.365Z,97.89
2022-09-26T05:11:09.097Z,97.89
2022-09-26T05:12:09.820Z,97.38
2022-09-26T05:13:09.075Z,97.79
2022-09-26T05:14:09.082Z,97.79
2022-09-26T05:15:09.052Z,97.69
2022-09-26T05:16:09.151Z,97.99
2022-09-26T05:17:09.030Z,97.69
2022-09-26T05:18:09.015Z,98.10
2022-09-26T05:19:09.081Z,97.79
2022-09-26T05:20:09.037Z,97.99
2022-09-26T05:21:08.981Z,97.79
2022-09-26T05:22:08.976Z,97.79
2022-09-26T05:23:08.968Z,97.89
2022-09-26T05:24:08.946Z,97.69
2022-09-26T05:25:08.968Z,97.79
2022-09-26T05:26:08.956Z,97.79
2022-09-26T05:27:08.919Z,97.79
2022-09-26T05:28:08.914Z,97.49
2022-09-26T05:29:09.381Z,97.49
2022-09-26T05:30:08.915Z,97.28
2022-09-26T05:31:08.977Z,97.99
2022-09-26T05:32:08.895Z,97.69
2022-09-26T05:33:08.846Z,97.49
2022-09-26T05:34:08.871Z,98.10
2022-09-26T05:35:09.027Z,97.69
2022-09-26T05:36:08.831Z,97.49
2022-09-26T05:37:08.831Z,97.58
2022-09-26T05:38:08.801Z,97.38
2022-09-26T05:39:08.914Z,97.58
2022-09-26T05:40:08.783Z,97.69
2022-09-26T05:41:08.760Z,97.08
2022-09-26T05:42:08.850Z,97.49
2022-09-26T05:43:08.773Z,97.08
2022-09-26T05:44:08.733Z,97.58
2022-09-26T05:45:08.746Z,97.24
2022-09-26T05:46:08.723Z,96.92
2022-09-26T05:47:08.885Z,97.33
2022-09-26T05:48:08.680Z,97.49
2022-09-26T05:49:08.778Z,97.44
2022-09-26T05:50:11.325Z,97.28
2022-09-26T05:51:08.674Z,97.28
2022-09-26T05:52:08.636Z,96.87
2022-09-26T05:53:08.866Z,97.28
2022-09-26T05:54:08.612Z,97.38
2022-09-26T05:55:09.322Z,96.92
2022-09-26T05:56:08.613Z,97.44
2022-09-26T05:57:08.625Z,96.92
2022-09-26T05:58:08.609Z,96.92
2022-09-26T05:59:08.577Z,96.21
2022-09-26T06:00:08.545Z,96.51
2022-09-26T06:01:08.655Z,96.21
2022-09-26T06:02:08.622Z,96.11
2022-09-26T06:03:08.527Z,96.21
2022-09-26T06:04:08.526Z,96.21
2022-09-26T06:05:08.490Z,96.11
2022-09-26T06:06:08.501Z,96.31
2022-09-26T06:07:08.529Z,96.42
2022-09-26T06:08:08.470Z,96.11
2022-09-26T06:09:08.454Z,95.80
2022-09-26T06:10:08.438Z,96.17
2022-09-26T06:11:08.443Z,96.01
2022-09-26T06:12:08.417Z,95.80
2022-09-26T06:13:08.454Z,96.21
2022-09-26T06:14:08.419Z,95.70
2022-09-26T06:15:08.379Z,96.27
2022-09-26T06:16:08.430Z,95.90
2022-09-26T06:17:08.365Z,95.56
2022-09-26T06:18:08.356Z,95.56
2022-09-26T06:19:08.522Z,95.45
2022-09-26T06:20:08.343Z,95.60
2022-09-26T06:21:08.315Z,95.25
2022-09-26T06:22:08.324Z,95.76
2022-09-26T06:23:08.303Z,94.94
2022-09-26T06:24:08.299Z,94.94
2022-09-26T06:25:08.311Z,94.84
2022-09-26T06:26:08.261Z,94.84
2022-09-26T06:27:08.266Z,94.84
2022-09-26T06:28:08.250Z,95.04
2022-09-26T06:29:08.254Z,94.84
2022-09-26T06:30:08.234Z,94.79
2022-09-26T06:31:08.314Z,94.49
2022-09-26T06:32:08.238Z,94.49
2022-09-26T06:33:08.209Z,94.38
2022-09-26T06:34:08.179Z,94.38
2022-09-26T06:35:08.185Z,94.53
2022-09-26T06:36:08.199Z,94.29
2022-09-26T06:37:08.187Z,93.88
2022-09-26T06:38:08.831Z,93.57
2022-09-26T06:39:08.159Z,93.77
2022-09-26T06:40:08.126Z,94.08
2022-09-26T06:41:08.111Z,93.37
2022-09-26T06:42:08.087Z,93.57
2022-09-26T06:43:08.085Z,93.57
2022-09-26T06:44:08.094Z,93.63
2022-09-26T06:45:08.060Z,93.47
2022-09-26T06:46:08.163Z,93.02
2022-09-26T06:47:08.096Z,92.81
2022-09-26T06:48:08.025Z,92.61
2022-09-26T06:49:08.047Z,92.45
2022-09-26T06:50:08.006Z,92.30
2022-09-26T06:51:07.996Z,92.35
2022-09-26T06:52:07.981Z,92.00
2022-09-26T06:53:09.999Z,92.00
2022-09-26T06:54:07.959Z,92.30
2022-09-26T06:55:08.000Z,91.89
2022-09-26T06:56:07.936Z,91.28
2022-09-26T06:57:11.633Z,90.98
2022-09-26T06:58:08.906Z,90.98
2022-09-26T06:59:07.941Z,91.18
2022-09-26T07:00:07.889Z,91.08
2022-09-26T07:01:08.004Z,91.18
2022-09-26T07:02:11.065Z,91.39
2022-09-26T07:03:07.860Z,90.98
2022-09-26T07:04:08.832Z,90.98
2022-09-26T07:05:07.867Z,91.39
2022-09-26T07:06:07.856Z,91.59
2022-09-26T07:07:07.809Z,90.88
2022-09-26T07:08:07.809Z,90.26
2022-09-26T07:09:12.457Z,90.47
2022-09-26T07:10:08.353Z,91.08
2022-09-26T07:11:31.242Z,91.03
2022-09-26T07:12:16.286Z,90.77
2022-09-26T07:13:08.756Z,90.06
2022-09-26T07:14:07.740Z,90.63
2022-09-26T07:15:09.795Z,90.01
2022-09-26T07:16:07.779Z,90.32
2022-09-26T07:17:07.725Z,89.81
2022-09-26T07:18:07.789Z,89.20
2022-09-26T07:19:07.698Z,89.86
2022-09-26T07:20:07.670Z,90.63
2022-09-26T07:21:08.331Z,90.63
2022-09-26T07:22:07.659Z,90.01
2022-09-26T07:23:07.665Z,90.12
2022-09-26T07:24:07.631Z,90.32
2022-09-26T07:25:10.332Z,90.01
2022-09-26T07:26:10.339Z,90.53
2022-09-26T07:27:08.334Z,89.10
2022-09-26T07:28:07.588Z,89.71
2022-09-26T07:29:07.643Z,89.40
2022-09-26T07:30:07.559Z,89.51
2022-09-26T07:31:08.387Z,89.71
2022-09-26T07:32:08.334Z,89.92
2022-09-26T07:33:08.348Z,89.61
2022-09-26T07:34:07.552Z,89.10
2022-09-26T07:35:07.539Z,89.51
2022-09-26T07:36:08.336Z,89.81
2022-09-26T07:37:07.487Z,89.71
2022-09-26T07:38:07.866Z,88.90
2022-09-26T07:39:07.471Z,89.00
2022-09-26T07:40:08.332Z,88.90
2022-09-26T07:41:07.439Z,88.59
2022-09-26T07:42:07.473Z,88.59
2022-09-26T07:43:35.681Z,88.69
2022-09-26T07:45:29.394Z,88.18
2022-09-26T07:46:09.474Z,88.59
2022-09-26T07:47:08.469Z,88.90
2022-09-26T07:48:07.385Z,87.98
2022-09-26T07:49:08.337Z,88.59
2022-09-26T07:50:07.882Z,87.84
2022-09-26T07:51:09.422Z,87.98
2022-09-26T07:52:07.386Z,88.08
2022-09-26T07:53:07.312Z,88.39
2022-09-26T07:54:07.306Z,88.14
2022-09-26T07:55:07.299Z,87.63
2022-09-26T07:56:07.280Z,88.14
2022-09-26T07:57:07.266Z,87.84
2022-09-26T07:58:07.296Z,87.69
2022-09-26T07:59:13.836Z,87.63
2022-09-26T08:00:07.833Z,87.32
2022-09-26T08:01:07.241Z,86.61
2022-09-26T08:02:10.055Z,86.98
2022-09-26T08:03:09.958Z,86.16
2022-09-26T08:04:07.279Z,86.57
2022-09-26T08:05:07.183Z,86.16
2022-09-26T08:06:07.847Z,86.68
2022-09-26T08:07:07.171Z,86.47
2022-09-26T08:08:07.357Z,86.41
2022-09-26T08:09:07.843Z,86.10
2022-09-26T08:10:07.161Z,86.37
2022-09-26T08:11:07.130Z,86.00
2022-09-26T08:12:07.104Z,85.66
2022-09-26T08:13:07.841Z,86.00
2022-09-26T08:14:07.837Z,85.55
2022-09-26T08:15:07.084Z,85.80
2022-09-26T08:16:07.138Z,86.51
2022-09-26T08:17:11.878Z,86.51
2022-09-26T08:18:08.860Z,85.55
2022-09-26T08:19:07.054Z,85.96
2022-09-26T08:20:07.051Z,85.19
2022-09-26T08:21:09.864Z,85.80
2022-09-26T08:22:07.009Z,85.69
2022-09-26T08:23:06.993Z,86.06
2022-09-26T08:24:06.997Z,85.55
2022-09-26T08:25:06.998Z,85.60
2022-09-26T08:26:07.833Z,85.80
2022-09-26T08:27:06.983Z,85.80
2022-09-26T08:28:06.933Z,85.86
2022-09-26T08:29:09.871Z,85.60
2022-09-26T08:30:06.901Z,85.75
2022-09-26T08:31:06.925Z,85.96
2022-09-26T08:32:06.917Z,85.55
2022-09-26T08:33:06.905Z,85.25
2022-09-26T08:34:06.884Z,85.35
2022-09-26T08:35:07.842Z,85.75
2022-09-26T08:36:13.877Z,85.25
2022-09-26T08:37:06.867Z,85.86
2022-09-26T08:38:06.822Z,85.96
2022-09-26T08:39:06.911Z,85.96
2022-09-26T08:40:07.341Z,85.66
2022-09-26T08:41:07.438Z,86.27
2022-09-26T08:42:09.338Z,86.47
2022-09-26T08:43:06.827Z,86.27
2022-09-26T08:44:06.827Z,87.55
2022-09-26T08:45:06.771Z,86.98
2022-09-26T08:46:06.797Z,85.96
2022-09-26T08:47:06.730Z,85.86
2022-09-26T08:48:06.713Z,85.86
2022-09-26T08:49:06.736Z,85.66
2022-09-26T08:50:07.346Z,86.37
2022-09-26T08:51:06.684Z,86.06
2022-09-26T08:52:06.881Z,85.35
2022-09-26T08:53:07.354Z,85.25
2022-09-26T08:54:06.808Z,85.86
2022-09-26T08:55:07.687Z,85.55
2022-09-26T08:56:06.614Z,85.66
2022-09-26T08:57:06.612Z,86.16
2022-09-26T08:58:06.610Z,85.75
2022-09-26T08:59:06.883Z,85.96
2022-09-26T09:00:06.618Z,86.06
2022-09-26T09:01:06.613Z,86.47
2022-09-26T09:02:06.799Z,87.18
2022-09-26T09:03:07.425Z,88.10
2022-09-26T09:04:06.571Z,87.85
2022-09-26T09:05:06.876Z,88.71
2022-09-26T09:06:06.543Z,89.01
2022-09-26T09:07:06.534Z,89.12
2022-09-26T09:08:06.536Z,89.12
2022-09-26T09:09:09.345Z,90.24
2022-09-26T09:10:06.471Z,90.14
2022-09-26T09:11:06.498Z,90.24
2022-09-26T09:12:06.453Z,90.08
2022-09-26T09:13:06.426Z,90.99
2022-09-26T09:14:06.546Z,90.83
2022-09-26T09:15:24.769Z,91.40
2022-09-26T09:16:07.544Z,91.24
2022-09-26T09:17:06.445Z,91.35
2022-09-26T09:18:11.236Z,91.35
2022-09-26T09:19:07.370Z,92.26
2022-09-26T09:20:07.340Z,92.36
2022-09-26T09:21:06.405Z,91.69
2022-09-26T09:22:06.358Z,92.57
2022-09-26T09:23:06.340Z,92.20
2022-09-26T09:24:06.469Z,92.30
2022-09-26T09:25:06.309Z,92.41
2022-09-26T09:28:24.681Z,92.81
2022-09-26T09:29:23.705Z,92.91
2022-09-26T09:30:23.045Z,93.32
2022-09-26T09:31:23.104Z,93.06
2022-09-26T09:32:23.055Z,93.84
2022-09-26T09:33:23.692Z,93.84
2022-09-26T09:34:23.674Z,94.49
2022-09-26T09:35:23.011Z,94.85
2022-09-26T09:36:22.997Z,94.55
2022-09-26T09:37:22.959Z,94.45
2022-09-26T09:38:23.206Z,94.59
2022-09-26T09:39:22.968Z,94.04
2022-09-26T09:40:23.020Z,94.34
2022-09-26T09:41:22.931Z,94.65
2022-09-26T09:42:22.897Z,94.75
2022-09-26T09:43:22.920Z,94.45
2022-09-26T09:44:22.887Z,95.61
2022-09-26T09:45:23.691Z,94.49
2022-09-26T09:46:22.929Z,94.59
2022-09-26T09:47:23.682Z,94.90
2022-09-26T09:48:22.873Z,95.72
2022-09-26T09:49:26.266Z,95.61
2022-09-26T09:50:23.747Z,96.02
2022-09-26T09:51:23.688Z,96.63
2022-09-26T09:52:22.813Z,96.12
2022-09-26T09:53:22.795Z,95.81
2022-09-26T09:54:22.766Z,96.17
2022-09-26T09:55:23.709Z,96.73
2022-09-26T09:56:22.781Z,95.92
2022-09-26T09:57:22.742Z,96.17
2022-09-26T09:58:22.745Z,97.29
2022-09-26T09:59:23.686Z,97.65
2022-09-26T10:00:22.749Z,97.80
2022-09-26T10:01:22.705Z,97.86
2022-09-26T10:02:23.757Z,97.81
2022-09-26T10:03:23.230Z,97.45
2022-09-26T10:04:22.676Z,97.75
2022-09-26T10:05:22.726Z,97.86
2022-09-26T10:06:45.968Z,97.34
2022-09-26T10:07:23.635Z,98.06
2022-09-26T10:08:22.640Z,97.70
2022-09-26T10:09:36.024Z,98.16
2022-09-26T10:10:23.587Z,98.06
2022-09-26T10:11:22.612Z,97.75
2022-09-26T10:12:22.599Z,97.75
2022-09-26T10:13:23.621Z,97.91
2022-09-26T10:14:22.552Z,98.02
2022-09-26T10:15:22.556Z,97.91
2022-09-26T10:16:22.628Z,98.43
2022-09-26T10:17:22.554Z,98.93
2022-09-26T10:18:25.836Z,98.43
2022-09-26T10:19:23.203Z,97.96
2022-09-26T10:20:22.502Z,98.16
2022-09-26T10:21:22.714Z,98.36
2022-09-26T10:22:22.481Z,98.68
2022-09-26T10:23:22.487Z,98.57
2022-09-26T10:24:22.450Z,98.88
2022-09-26T10:25:22.428Z,99.08
2022-09-26T10:26:22.424Z,99.34
2022-09-26T10:27:22.441Z,99.04
2022-09-26T10:28:22.427Z,99.04
2022-09-26T10:29:22.388Z,99.34
2022-09-26T10:30:23.177Z,98.52
2022-09-26T10:31:22.483Z,98.11
2022-09-26T10:32:22.362Z,98.11
2022-09-26T10:33:22.347Z,97.81
2022-09-26T10:34:22.345Z,98.02
2022-09-26T10:35:22.342Z,97.81
2022-09-26T10:36:22.309Z,98.02
2022-09-26T10:37:23.189Z,98.11
2022-09-26T10:38:22.310Z,98.43
2022-09-26T10:39:22.300Z,98.02
2022-09-26T10:40:22.337Z,97.91
2022-09-26T10:41:22.252Z,98.02
2022-09-26T10:42:22.250Z,97.91
2022-09-26T10:43:22.271Z,98.11
2022-09-26T10:44:22.241Z,98.22
2022-09-26T10:45:22.212Z,98.11
2022-09-26T10:46:22.311Z,98.11
2022-09-26T10:47:22.183Z,97.20
2022-09-26T10:48:22.242Z,97.61
2022-09-26T10:49:22.185Z,97.87
2022-09-26T10:50:24.690Z,98.27
2022-09-26T10:51:24.716Z,98.18
2022-09-26T10:52:22.136Z,97.82
2022-09-26T10:53:22.121Z,97.66
2022-09-26T10:54:22.140Z,97.56
2022-09-26T10:55:22.118Z,97.66
2022-09-26T10:56:22.093Z,97.77
2022-09-26T10:57:22.083Z,98.23
2022-09-26T10:58:22.247Z,97.72
2022-09-26T10:59:22.094Z,97.31
2022-09-26T11:00:22.094Z,97.72
2022-09-26T11:01:22.203Z,97.46
2022-09-26T11:02:22.020Z,97.36
2022-09-26T11:03:22.107Z,97.31
2022-09-26T11:04:21.998Z,97.46
2022-09-26T11:05:24.699Z,97.66
2022-09-26T11:06:24.040Z,97.66
2022-09-26T11:07:21.967Z,97.66
2022-09-26T11:08:21.956Z,97.87
2022-09-26T11:09:21.970Z,97.87
2022-09-26T11:10:21.937Z,97.62
2022-09-26T11:11:22.688Z,97.97
2022-09-26T11:12:22.242Z,97.25
2022-09-26T11:13:22.222Z,97.87
2022-09-26T11:14:25.941Z,98.02
2022-09-26T11:15:22.889Z,97.77
2022-09-26T11:16:22.810Z,97.77
2022-09-26T11:17:21.859Z,97.66
2022-09-26T11:18:23.719Z,97.36
2022-09-26T11:19:21.851Z,97.56
2022-09-26T11:20:24.691Z,97.56
2022-09-26T11:21:28.912Z,97.05
2022-09-26T11:22:23.692Z,98.07
2022-09-26T11:23:21.805Z,98.07
2022-09-26T11:24:21.770Z,97.97
2022-09-26T11:25:21.770Z,98.07
2022-09-26T11:26:22.685Z,97.66
2022-09-26T11:27:22.695Z,97.77
2022-09-26T11:28:21.748Z,97.66
2022-09-26T11:29:21.718Z,97.56
2022-09-26T11:30:21.712Z,97.77
2022-09-26T11:31:21.777Z,98.07
2022-09-26T11:32:21.691Z,97.36
2022-09-26T11:33:21.716Z,97.25
2022-09-26T11:34:21.667Z,97.97
2022-09-26T11:35:21.650Z,97.66
2022-09-26T11:36:21.646Z,97.66
2022-09-26T11:37:21.647Z,97.77
2022-09-26T11:38:21.665Z,97.46
2022-09-26T11:39:21.628Z,96.75
2022-09-26T11:40:21.652Z,97.05
2022-09-26T11:41:22.198Z,97.56
2022-09-26T11:42:21.574Z,97.16
2022-09-26T11:43:21.608Z,97.56
2022-09-26T11:44:21.556Z,97.31
2022-09-26T11:45:21.538Z,97.11
2022-09-26T11:46:21.586Z,96.60
2022-09-26T11:47:22.212Z,97.21
2022-09-26T11:48:28.205Z,97.31
2022-09-26T11:49:21.731Z,97.16
2022-09-26T11:50:21.521Z,95.33
2022-09-26T11:51:21.461Z,95.33
2022-09-26T11:52:21.480Z,95.64
2022-09-26T11:53:21.466Z,95.13
2022-09-26T11:54:24.200Z,95.64
2022-09-26T11:55:21.451Z,94.62
2022-09-26T11:56:21.429Z,94.21
2022-09-26T11:57:21.433Z,94.31
2022-09-26T11:58:21.396Z,93.86
2022-09-26T11:59:21.380Z,93.55
2022-09-26T12:00:21.392Z,93.35
2022-09-26T12:01:21.362Z,92.54
2022-09-26T12:02:21.556Z,93.10
2022-09-26T12:03:21.470Z,92.60
2022-09-26T12:04:21.362Z,92.04
2022-09-26T12:05:26.103Z,91.99
2022-09-26T12:06:25.202Z,92.25
2022-09-26T12:07:21.304Z,90.52
2022-09-26T12:08:21.280Z,90.56
2022-09-26T12:09:21.287Z,91.43
2022-09-26T12:10:21.269Z,91.23
2022-09-26T12:11:21.276Z,91.13
2022-09-26T12:12:21.228Z,90.83
2022-09-26T12:13:21.255Z,91.13
2022-09-26T12:14:21.224Z,90.72
2022-09-26T12:15:21.233Z,91.13
2022-09-26T12:16:21.249Z,90.62
2022-09-26T12:17:21.186Z,90.52
2022-09-26T12:18:21.173Z,90.11
2022-09-26T12:19:21.202Z,90.42
2022-09-26T12:20:21.176Z,90.22
2022-09-26T12:21:21.177Z,90.42
2022-09-26T12:22:21.122Z,90.52
2022-09-26T12:23:21.118Z,90.01
2022-09-26T12:24:21.126Z,89.81
2022-09-26T12:25:21.120Z,90.11
2022-09-26T12:26:21.091Z,90.92
2022-09-26T12:27:21.077Z,90.52
2022-09-26T12:28:21.057Z,89.91
2022-09-26T12:29:21.055Z,89.91
2022-09-26T12:30:21.064Z,90.52
2022-09-26T12:31:21.177Z,90.62
2022-09-26T12:32:21.031Z,90.56
2022-09-26T12:33:21.018Z,90.11
2022-09-26T12:34:20.997Z,89.85
2022-09-26T12:35:21.003Z,90.83
2022-09-26T12:36:20.991Z,90.31
2022-09-26T12:37:20.958Z,90.46
2022-09-26T12:38:20.964Z,90.52
2022-09-26T12:39:20.947Z,90.16
2022-09-26T12:40:21.771Z,89.95
2022-09-26T12:41:21.234Z,88.63
2022-09-26T12:42:20.910Z,89.40
2022-09-26T12:43:20.915Z,88.69
2022-09-26T12:44:20.910Z,89.20
2022-09-26T12:45:43.973Z,88.69
2022-09-26T12:46:20.930Z,88.42
2022-09-26T12:47:20.851Z,88.63
2022-09-26T12:48:24.745Z,88.93
2022-09-26T12:49:20.831Z,88.73
2022-09-26T12:50:20.830Z,89.24
2022-09-26T12:51:20.833Z,88.73
2022-09-26T12:52:27.134Z,88.32
2022-09-26T12:53:20.802Z,88.53
2022-09-26T12:54:20.797Z,88.32
2022-09-26T12:55:20.775Z,88.63